createdAt,value
2023-03-07T00:00:27.093Z,1
2023-03-07T00:01:26.779Z,1
2023-03-07T00:02:26.854Z,1
2023-03-07T00:03:26.872Z,1
2023-03-07T00:04:26.750Z,1
2023-03-07T00:05:26.740Z,1
2023-03-07T00:06:26.728Z,1
2023-03-07T00:07:26.724Z,1
2023-03-07T00:08:26.705Z,1
2023-03-07T00:09:26.700Z,1
2023-03-07T00:10:26.685Z,1
2023-03-07T00:11:26.675Z,1
2023-03-07T00:12:26.664Z,1
2023-03-07T00:13:26.655Z,1
2023-03-07T00:14:26.645Z,1
2023-03-07T00:15:26.655Z,1
2023-03-07T00:16:26.699Z,1
2023-03-07T00:17:26.618Z,1
2023-03-07T00:18:26.598Z,1
2023-03-07T00:19:26.617Z,1
2023-03-07T00:20:26.576Z,1
2023-03-07T00:21:26.567Z,1
2023-03-07T00:22:26.559Z,1
2023-03-07T00:23:26.548Z,1
2023-03-07T00:24:26.534Z,1
2023-03-07T00:25:26.528Z,1
2023-03-07T00:26:26.521Z,1
2023-03-07T00:27:26.505Z,1
2023-03-07T00:28:26.492Z,1
2023-03-07T00:29:26.484Z,1
2023-03-07T00:30:26.478Z,1
2023-03-07T00:31:26.477Z,1
2023-03-07T00:32:26.533Z,1
2023-03-07T00:33:26.442Z,1
2023-03-07T00:34:26.431Z,1
2023-03-07T00:35:26.451Z,1
2023-03-07T00:36:26.409Z,1
2023-03-07T00:37:26.398Z,1
2023-03-07T00:38:26.385Z,1
2023-03-07T00:39:26.379Z,1
2023-03-07T00:40:26.370Z,1
2023-03-07T00:41:26.363Z,1
2023-03-07T00:42:26.345Z,1
2023-03-07T00:43:26.346Z,1
2023-03-07T00:44:26.324Z,1
2023-03-07T00:45:26.361Z,1
2023-03-07T00:46:26.312Z,1
2023-03-07T00:47:26.296Z,1
2023-03-07T00:48:26.283Z,1
2023-03-07T00:49:26.277Z,1
2023-03-07T00:50:26.268Z,1
2023-03-07T00:51:26.278Z,1
2023-03-07T00:52:26.245Z,1
2023-03-07T00:53:26.236Z,1
2023-03-07T00:54:26.220Z,1
2023-03-07T00:55:26.209Z,1
2023-03-07T00:56:26.205Z,1
2023-03-07T00:57:26.188Z,1
2023-03-07T00:58:26.182Z,1
2023-03-07T00:59:26.173Z,1
2023-03-07T01:00:26.159Z,1
2023-03-07T01:01:26.147Z,1
2023-03-07T01:02:26.162Z,1
2023-03-07T01:03:26.156Z,1
2023-03-07T01:04:26.217Z,1
2023-03-07T01:05:26.106Z,1
2023-03-07T01:06:26.091Z,1
2023-03-07T01:07:26.109Z,1
2023-03-07T01:08:26.076Z,1
2023-03-07T01:09:26.061Z,1
2023-03-07T01:10:26.051Z,1
2023-03-07T01:11:26.040Z,1
2023-03-07T01:12:26.051Z,1
2023-03-07T01:13:26.022Z,1
2023-03-07T01:14:26.043Z,1
2023-03-07T01:15:26.012Z,1
2023-03-07T01:16:26.107Z,1
2023-03-07T01:17:25.980Z,1
2023-03-07T01:18:25.972Z,1
2023-03-07T01:19:25.976Z,1
2023-03-07T01:20:25.955Z,1
2023-03-07T01:21:25.939Z,1
2023-03-07T01:22:25.926Z,1
2023-03-07T01:23:25.956Z,1
2023-03-07T01:24:25.932Z,1
2023-03-07T01:25:25.924Z,1
2023-03-07T01:26:25.886Z,1
2023-03-07T01:27:25.875Z,1
2023-03-07T01:28:25.862Z,1
2023-03-07T01:29:25.852Z,1
2023-03-07T01:30:25.853Z,1
2023-03-07T01:31:25.898Z,1
2023-03-07T01:32:25.887Z,1
2023-03-07T01:33:25.816Z,1
2023-03-07T01:34:25.811Z,1
2023-03-07T01:35:25.795Z,1
2023-03-07T01:36:25.905Z,1
2023-03-07T01:37:25.770Z,1
2023-03-07T01:38:25.760Z,1
2023-03-07T01:39:25.798Z,1
2023-03-07T01:40:25.737Z,1
2023-03-07T01:41:25.727Z,1
2023-03-07T01:42:25.717Z,1
2023-03-07T01:43:25.710Z,1
2023-03-07T01:44:25.718Z,1
2023-03-07T01:45:25.688Z,1
2023-03-07T01:46:25.683Z,1
2023-03-07T01:47:25.663Z,1
2023-03-07T01:48:25.656Z,1
2023-03-07T01:49:25.641Z,1
2023-03-07T01:50:25.639Z,1
2023-03-07T01:51:25.624Z,1
2023-03-07T01:52:25.607Z,1
2023-03-07T01:53:25.602Z,1
2023-03-07T01:54:25.589Z,1
2023-03-07T01:55:25.641Z,1
2023-03-07T01:56:25.569Z,1
2023-03-07T01:57:25.560Z,1
2023-03-07T01:58:25.549Z,1
2023-03-07T01:59:25.537Z,1
2023-03-07T02:00:25.529Z,1
2023-03-07T02:01:25.540Z,1
2023-03-07T02:02:25.507Z,1
2023-03-07T02:03:25.494Z,1
2023-03-07T02:04:25.627Z,1
2023-03-07T02:05:25.477Z,1
2023-03-07T02:06:25.467Z,1
2023-03-07T02:07:25.452Z,1
2023-03-07T02:08:25.494Z,1
2023-03-07T02:09:25.430Z,1
2023-03-07T02:10:25.419Z,1
2023-03-07T02:11:25.439Z,1
2023-03-07T02:12:25.402Z,1
2023-03-07T02:13:25.390Z,1
2023-03-07T02:14:25.376Z,1
2023-03-07T02:15:25.372Z,1
2023-03-07T02:16:25.359Z,1
2023-03-07T02:17:25.346Z,1
2023-03-07T02:18:25.337Z,1
2023-03-07T02:19:25.329Z,1
2023-03-07T02:20:25.327Z,1
2023-03-07T02:21:25.332Z,1
2023-03-07T02:22:25.307Z,1
2023-03-07T02:23:25.296Z,1
2023-03-07T02:24:25.270Z,1
2023-03-07T02:25:25.265Z,1
2023-03-07T02:26:25.250Z,1
2023-03-07T02:27:25.270Z,1
2023-03-07T02:28:25.237Z,1
2023-03-07T02:29:25.222Z,1
2023-03-07T02:30:25.212Z,1
2023-03-07T02:31:25.203Z,1
2023-03-07T02:32:25.280Z,1
2023-03-07T02:33:25.212Z,1
2023-03-07T02:34:25.169Z,1
2023-03-07T02:35:25.242Z,1
2023-03-07T02:36:25.146Z,1
2023-03-07T02:37:25.141Z,1
2023-03-07T02:38:25.127Z,1
2023-03-07T02:39:25.116Z,1
2023-03-07T02:40:25.108Z,1
2023-03-07T02:41:25.096Z,1
2023-03-07T02:42:25.084Z,1
2023-03-07T02:43:25.097Z,1
2023-03-07T02:44:25.082Z,1
2023-03-07T02:45:25.055Z,1
2023-03-07T02:46:25.079Z,1
2023-03-07T02:47:25.028Z,1
2023-03-07T02:48:25.022Z,1
2023-03-07T02:49:25.011Z,1
2023-03-07T02:52:39.424Z,1
2023-03-07T02:53:39.416Z,1
2023-03-07T02:54:39.403Z,1
2023-03-07T02:55:39.396Z,1
2023-03-07T02:56:39.384Z,1
2023-03-07T02:57:39.378Z,1
2023-03-07T02:58:39.388Z,1
2023-03-07T03:06:48.273Z,1
2023-03-07T03:07:48.262Z,1
2023-03-07T03:08:48.250Z,1
2023-03-07T03:09:48.242Z,1
2023-03-07T03:10:48.231Z,1
2023-03-07T03:11:48.223Z,1
2023-03-07T03:12:48.221Z,1
2023-03-07T03:13:48.257Z,1
2023-03-07T03:14:48.188Z,1
2023-03-07T03:15:48.259Z,1
2023-03-07T03:16:48.174Z,1
2023-03-07T03:17:48.158Z,1
2023-03-07T03:18:48.153Z,1
2023-03-07T03:19:48.139Z,1
2023-03-07T03:20:48.129Z,1
2023-03-07T03:21:48.118Z,1
2023-03-07T03:22:48.115Z,1
2023-03-07T03:23:48.121Z,1
2023-03-07T03:24:48.088Z,1
2023-03-07T03:25:48.082Z,1
2023-03-07T03:26:48.072Z,1
2023-03-07T03:27:48.063Z,1
2023-03-07T03:28:48.046Z,1
2023-03-07T03:29:48.069Z,1
2023-03-07T03:30:48.028Z,1
2023-03-07T03:31:48.019Z,1
2023-03-07T03:32:48.006Z,1
2023-03-07T03:33:47.998Z,1
2023-03-07T03:34:47.991Z,1
2023-03-07T03:35:48.022Z,1
2023-03-07T03:36:47.962Z,1
2023-03-07T03:37:47.959Z,1
2023-03-07T03:38:47.945Z,1
2023-03-07T03:39:47.936Z,1
2023-03-07T03:40:47.925Z,1
2023-03-07T03:41:47.913Z,1
2023-03-07T03:42:47.910Z,1
2023-03-07T03:43:47.892Z,1
2023-03-07T03:44:47.889Z,1
2023-03-07T03:45:47.894Z,1
2023-03-07T03:46:47.951Z,1
2023-03-07T03:47:47.847Z,1
2023-03-07T03:48:47.840Z,1
2023-03-07T03:49:47.829Z,1
2023-03-07T03:50:47.821Z,1
2023-03-07T03:51:47.814Z,1
2023-03-07T03:52:47.814Z,1
2023-03-07T03:53:47.793Z,1
2023-03-07T03:54:47.782Z,1
2023-03-07T03:55:47.769Z,1
2023-03-07T03:56:47.762Z,1
2023-03-07T03:57:47.758Z,1
2023-03-07T03:58:47.740Z,1
2023-03-07T03:59:47.730Z,1
2023-03-07T04:00:47.721Z,1
2023-03-07T04:01:47.866Z,1
2023-03-07T04:02:47.823Z,1
2023-03-07T04:03:47.687Z,1
2023-03-07T04:04:47.678Z,1
2023-03-07T04:05:47.670Z,1
2023-03-07T04:06:47.652Z,1
2023-03-07T04:07:47.645Z,1
2023-03-07T04:08:47.631Z,1
2023-03-07T04:09:47.620Z,1
2023-03-07T04:10:47.613Z,1
2023-03-07T04:11:47.652Z,1
2023-03-07T04:12:47.594Z,1
2023-03-07T04:13:47.593Z,1
2023-03-07T04:14:47.568Z,1
2023-03-07T04:15:47.557Z,1
2023-03-07T04:16:47.691Z,1
2023-03-07T04:17:47.583Z,1
2023-03-07T04:18:47.527Z,1
2023-03-07T04:19:47.525Z,2
2023-03-07T04:20:47.511Z,2
2023-03-07T04:21:47.521Z,2
2023-03-07T04:22:47.494Z,2
2023-03-07T04:23:47.489Z,2
2023-03-07T04:24:47.491Z,2
2023-03-07T04:25:47.503Z,2
2023-03-07T04:26:47.457Z,2
2023-03-07T04:27:47.485Z,1
2023-03-07T04:28:47.458Z,2
2023-03-07T04:29:47.413Z,2
2023-03-07T04:30:47.407Z,2
2023-03-07T04:31:47.415Z,2
2023-03-07T04:32:47.396Z,2
2023-03-07T04:33:47.403Z,2
2023-03-07T04:34:47.359Z,2
2023-03-07T04:35:47.440Z,2
2023-03-07T04:36:47.338Z,2
2023-03-07T04:37:47.332Z,1
2023-03-07T04:38:47.326Z,1
2023-03-07T04:39:47.313Z,1
2023-03-07T04:40:47.298Z,1
2023-03-07T04:41:47.288Z,2
2023-03-07T04:42:47.285Z,2
2023-03-07T04:43:47.270Z,2
2023-03-07T04:44:47.262Z,2
2023-03-07T04:45:47.259Z,2
2023-03-07T04:46:47.243Z,2
2023-03-07T04:47:47.234Z,1
2023-03-07T04:48:47.229Z,2
2023-03-07T04:49:47.236Z,1
2023-03-07T04:50:47.204Z,1
2023-03-07T04:51:47.228Z,1
2023-03-07T04:52:47.182Z,1
2023-03-07T04:53:47.185Z,1
2023-03-07T04:54:47.163Z,1
2023-03-07T04:55:47.156Z,1
2023-03-07T04:56:47.141Z,1
2023-03-07T04:57:47.132Z,1
2023-03-07T04:58:47.124Z,1
2023-03-07T04:59:47.114Z,1
2023-03-07T05:00:47.100Z,1
2023-03-07T05:01:47.094Z,1
2023-03-07T05:02:47.081Z,1
2023-03-07T05:03:47.076Z,1
2023-03-07T05:04:47.066Z,1
2023-03-07T05:05:47.087Z,1
2023-03-07T05:06:47.048Z,1
2023-03-07T05:07:47.029Z,1
2023-03-07T05:08:47.031Z,1
2023-03-07T05:09:47.011Z,1
2023-03-07T05:10:47.002Z,1
2023-03-07T05:11:46.991Z,1
2023-03-07T05:12:46.983Z,1
2023-03-07T05:13:47.003Z,1
2023-03-07T05:14:46.965Z,1
2023-03-07T05:15:46.986Z,18.
2023-03-07T05:16:46.943Z,18.
2023-03-07T05:17:46.933Z,18.
2023-03-07T05:18:46.932Z,18.
2023-03-07T05:19:46.925Z,17.
2023-03-07T05:20:46.902Z,18.
2023-03-07T05:21:46.916Z,1
2023-03-07T05:22:46.881Z,1
2023-03-07T05:23:46.874Z,1
2023-03-07T05:24:46.860Z,1
2023-03-07T05:25:46.861Z,18.
2023-03-07T05:26:46.843Z,18.
2023-03-07T05:27:46.829Z,18.
2023-03-07T05:28:46.822Z,19.
2023-03-07T05:29:46.810Z,1
2023-03-07T05:30:46.856Z,18.
2023-03-07T05:31:46.793Z,19.
2023-03-07T05:32:46.781Z,21.
2023-03-07T05:33:46.773Z,19.
2023-03-07T05:34:46.763Z,19.
2023-03-07T05:35:46.849Z,19.
2023-03-07T05:36:46.743Z,20.
2023-03-07T05:37:46.752Z,20.
2023-03-07T05:38:46.719Z,18.
2023-03-07T05:39:46.710Z,18.
2023-03-07T05:40:46.711Z,18.
2023-03-07T05:41:46.692Z,18.
2023-03-07T05:42:46.694Z,19.
2023-03-07T05:43:46.675Z,25.
2023-03-07T05:44:46.661Z,23.
2023-03-07T05:45:46.649Z,20.
2023-03-07T05:46:46.645Z,21.
2023-03-07T05:47:46.628Z,21.
2023-03-07T05:48:46.623Z,20.
2023-03-07T05:49:46.611Z,21.
2023-03-07T05:50:46.611Z,21.
2023-03-07T05:51:46.603Z,22.
2023-03-07T05:52:46.585Z,22.
2023-03-07T05:53:46.602Z,22.
2023-03-07T05:54:46.560Z,20.
2023-03-07T05:55:46.552Z,21.
2023-03-07T05:56:46.544Z,20.
2023-03-07T05:57:46.532Z,20.
2023-03-07T05:58:46.531Z,20.
2023-03-07T05:59:46.528Z,20.
2023-03-07T06:00:46.504Z,20.
2023-03-07T06:01:46.491Z,20.29
2023-03-07T06:02:46.512Z,20.39
2023-03-07T06:03:46.562Z,20.50
2023-03-07T06:04:46.461Z,19.89
2023-03-07T06:05:46.452Z,19.79
2023-03-07T06:06:46.440Z,19.50
2023-03-07T06:07:46.443Z,19.70
2023-03-07T06:08:46.425Z,20.60
2023-03-07T06:09:46.436Z,19.60
2023-03-07T06:10:46.402Z,19.50
2023-03-07T06:11:46.391Z,18.20
2023-03-07T06:12:46.385Z,18.89
2023-03-07T06:13:46.370Z,18.89
2023-03-07T06:14:46.365Z,18.39
2023-03-07T06:15:46.408Z,18.70
2023-03-07T06:16:46.345Z,19.10
2023-03-07T06:17:46.331Z,18.89
2023-03-07T06:18:46.321Z,19.39
2023-03-07T06:19:46.328Z,18.00
2023-03-07T06:20:46.302Z,17.70
2023-03-07T06:21:46.294Z,17.89
2023-03-07T06:22:46.292Z,18.20
2023-03-07T06:23:46.273Z,18.00
2023-03-07T06:24:46.264Z,17.70
2023-03-07T06:25:46.285Z,17.70
2023-03-07T06:26:46.240Z,17.20
2023-03-07T06:27:46.233Z,17.79
2023-03-07T06:28:46.224Z,17.60
2023-03-07T06:29:46.215Z,17.39
2023-03-07T06:30:46.205Z,17.50
2023-03-07T06:31:46.303Z,17.50
2023-03-07T06:32:46.185Z,17.10
2023-03-07T06:33:46.170Z,16.79
2023-03-07T06:34:46.162Z,17.10
2023-03-07T06:35:46.255Z,17.10
2023-03-07T06:36:46.144Z,16.50
2023-03-07T06:37:46.133Z,17.79
2023-03-07T06:38:46.119Z,17.79
2023-03-07T06:39:46.111Z,16.79
2023-03-07T06:40:46.101Z,16.60
2023-03-07T06:41:46.228Z,17.60
2023-03-07T06:42:46.077Z,17.00
2023-03-07T06:43:46.084Z,17.10
2023-03-07T06:44:46.077Z,16.39
2023-03-07T06:45:46.087Z,17.20
2023-03-07T06:46:46.045Z,16.89
2023-03-07T06:47:46.036Z,16.70
2023-03-07T06:48:46.023Z,16.29
2023-03-07T06:49:46.016Z,17.60
2023-03-07T06:50:46.000Z,17.39
2023-03-07T06:51:45.998Z,17.70
2023-03-07T06:52:45.980Z,23.20
2023-03-07T06:53:45.973Z,27.70
2023-03-07T06:54:45.961Z,29.70
2023-03-07T06:55:45.946Z,30.39
2023-03-07T06:56:45.941Z,30.89
2023-03-07T06:57:45.958Z,30.50
2023-03-07T06:58:45.917Z,30.29
2023-03-07T06:59:45.905Z,28.89
2023-03-07T07:00:45.945Z,28.79
2023-03-07T07:01:46.047Z,28.60
2023-03-07T07:02:46.007Z,28.29
2023-03-07T07:03:45.867Z,29.39
2023-03-07T07:04:45.855Z,29.60
2023-03-07T07:05:45.839Z,28.89
2023-03-07T07:06:45.833Z,27.50
2023-03-07T07:07:45.822Z,26.79
2023-03-07T07:08:45.808Z,27.00
2023-03-07T07:09:45.803Z,26.20
2023-03-07T07:10:45.799Z,26.70
2023-03-07T07:11:45.787Z,26.10
2023-03-07T07:12:45.772Z,25.10
2023-03-07T07:13:45.803Z,22.60
2023-03-07T07:14:45.750Z,23.20
2023-03-07T07:15:45.753Z,21.50
2023-03-07T07:16:45.795Z,22.70
2023-03-07T07:17:45.717Z,22.50
2023-03-07T07:18:45.714Z,21.29
2023-03-07T07:19:45.702Z,21.50
2023-03-07T07:20:45.688Z,24.29
2023-03-07T07:21:45.686Z,24.29
2023-03-07T07:22:45.665Z,26.70
2023-03-07T07:23:45.660Z,28.70
2023-03-07T07:24:45.651Z,29.39
2023-03-07T07:25:45.634Z,28.89
2023-03-07T07:26:45.644Z,27.29
2023-03-07T07:27:45.648Z,28.00
2023-03-07T07:28:45.623Z,27.29
2023-03-07T07:29:45.630Z,27.39
2023-03-07T07:30:45.602Z,25.20
2023-03-07T07:31:45.666Z,24.50
2023-03-07T07:32:45.799Z,23.79
2023-03-07T07:33:45.560Z,23.39
2023-03-07T07:34:45.564Z,23.50
2023-03-07T07:35:45.573Z,22.10
2023-03-07T07:36:45.538Z,22.20
2023-03-07T07:37:45.517Z,22.89
2023-03-07T07:38:45.528Z,23.39
2023-03-07T07:39:45.497Z,24.20
2023-03-07T07:40:45.483Z,24.29
2023-03-07T07:41:45.475Z,23.50
2023-03-07T07:42:45.471Z,26.00
2023-03-07T07:43:45.459Z,28.00
2023-03-07T07:44:45.451Z,28.79
2023-03-07T07:45:45.493Z,28.60
2023-03-07T07:46:45.427Z,28.10
2023-03-07T07:47:45.417Z,27.79
2023-03-07T07:48:45.408Z,27.39
2023-03-07T07:49:45.424Z,27.60
2023-03-07T07:50:45.386Z,28.60
2023-03-07T07:51:45.377Z,26.79
2023-03-07T07:52:45.371Z,26.39
2023-03-07T07:53:45.366Z,27.50
2023-03-07T07:54:45.352Z,26.70
2023-03-07T07:55:45.338Z,26.50
2023-03-07T07:56:45.329Z,28.10
2023-03-07T07:57:45.319Z,27.00
2023-03-07T07:58:45.306Z,27.20
2023-03-07T07:59:45.304Z,26.70
2023-03-07T08:00:45.296Z,27.10
2023-03-07T08:01:45.297Z,27.39
2023-03-07T08:02:45.335Z,26.89
2023-03-07T08:03:45.299Z,27.20
2023-03-07T08:04:45.244Z,26.89
2023-03-07T08:05:45.239Z,26.50
2023-03-07T08:06:45.228Z,26.00
2023-03-07T08:07:45.219Z,25.60
2023-03-07T08:08:45.206Z,25.89
2023-03-07T08:09:45.344Z,24.89
2023-03-07T08:10:45.191Z,25.89
2023-03-07T08:11:45.181Z,24.60
2023-03-07T08:12:45.165Z,26.10
2023-03-07T08:13:45.170Z,26.00
2023-03-07T08:14:45.145Z,26.00
2023-03-07T08:15:45.244Z,26.20
2023-03-07T08:16:45.132Z,25.70
2023-03-07T08:17:45.148Z,25.89
2023-03-07T08:18:45.112Z,27.50
2023-03-07T08:19:45.097Z,26.39
2023-03-07T08:20:45.101Z,26.50
2023-03-07T08:21:45.096Z,26.29
2023-03-07T08:22:45.073Z,26.39
2023-03-07T08:23:45.055Z,27.50
2023-03-07T08:24:45.050Z,27.00
2023-03-07T08:25:45.036Z,26.79
2023-03-07T08:26:45.025Z,26.89
2023-03-07T08:27:45.020Z,26.00
2023-03-07T08:28:45.005Z,26.79
2023-03-07T08:29:45.006Z,26.70
2023-03-07T08:30:44.993Z,27.00
2023-03-07T08:31:44.974Z,26.50
2023-03-07T08:32:45.021Z,27.50
2023-03-07T08:33:44.978Z,27.70
2023-03-07T08:34:44.942Z,27.29
2023-03-07T08:35:44.989Z,27.60
2023-03-07T08:36:44.927Z,27.20
2023-03-07T08:37:44.915Z,27.39
2023-03-07T08:38:44.906Z,27.20
2023-03-07T08:39:44.902Z,28.60
2023-03-07T08:40:44.885Z,26.29
2023-03-07T08:41:44.881Z,27.10
2023-03-07T08:42:44.891Z,26.10
2023-03-07T08:43:44.859Z,25.70
2023-03-07T08:44:44.844Z,27.00
2023-03-07T08:45:44.836Z,26.20
2023-03-07T08:46:44.937Z,26.00
2023-03-07T08:47:44.806Z,26.70
2023-03-07T08:48:44.800Z,26.50
2023-03-07T08:49:44.812Z,26.89
2023-03-07T08:50:44.786Z,26.39
2023-03-07T08:51:44.770Z,28.10
2023-03-07T08:52:44.755Z,26.70
2023-03-07T08:53:44.765Z,27.79
2023-03-07T08:54:44.742Z,27.39
2023-03-07T08:55:44.722Z,27.10
2023-03-07T08:56:44.715Z,28.29
2023-03-07T08:57:44.704Z,26.79
2023-03-07T08:58:44.690Z,25.20
2023-03-07T08:59:44.681Z,24.89
2023-03-07T09:00:44.672Z,24.70
2023-03-07T09:01:44.704Z,25.89
2023-03-07T09:02:44.646Z,24.89
2023-03-07T09:03:44.638Z,26.29
2023-03-07T09:04:44.667Z,26.10
2023-03-07T09:05:44.645Z,26.50
2023-03-07T09:06:44.611Z,25.89
2023-03-07T09:07:44.627Z,25.60
2023-03-07T09:08:44.590Z,23.70
2023-03-07T09:09:44.598Z,22.39
2023-03-07T09:10:44.576Z,23.89
2023-03-07T09:11:44.571Z,21.79
2023-03-07T09:12:44.580Z,21.60
2023-03-07T09:13:51.877Z,19.70
2023-03-07T09:14:45.555Z,20.10
2023-03-07T09:15:44.511Z,19.89
2023-03-07T09:16:44.502Z,20.50
2023-03-07T09:17:44.491Z,18.60
2023-03-07T09:18:44.491Z,19.10
2023-03-07T09:19:44.483Z,18.00
2023-03-07T09:20:44.492Z,20.29
2023-03-07T09:21:44.496Z,19.79
2023-03-07T09:22:44.452Z,21.10
2023-03-07T09:23:44.447Z,21.29
2023-03-07T09:24:44.429Z,20.60
2023-03-07T09:25:44.421Z,21.00
2023-03-07T09:26:44.402Z,18.50
2023-03-07T09:27:44.397Z,17.70
2023-03-07T09:28:44.384Z,17.89
2023-03-07T09:29:44.372Z,18.10
2023-03-07T09:30:44.360Z,18.39
2023-03-07T09:31:44.487Z,18.29
2023-03-07T09:32:44.394Z,19.00
2023-03-07T09:33:46.647Z,18.60
2023-03-07T09:34:44.321Z,19.79
2023-03-07T09:35:44.336Z,22.10
2023-03-07T09:36:44.301Z,22.60
2023-03-07T09:37:44.382Z,22.89
2023-03-07T09:38:44.287Z,21.89
2023-03-07T09:39:44.270Z,21.00
2023-03-07T09:40:44.260Z,20.50
2023-03-07T09:41:44.250Z,22.29
2023-03-07T09:42:44.250Z,22.10
2023-03-07T09:43:44.234Z,21.00
2023-03-07T09:44:44.224Z,21.70
2023-03-07T09:45:44.241Z,21.00
2023-03-07T09:46:44.202Z,20.60
2023-03-07T09:47:44.194Z,19.79
2023-03-07T09:48:44.189Z,20.39
2023-03-07T09:49:44.175Z,20.20
2023-03-07T09:50:44.161Z,20.10
2023-03-07T09:51:44.151Z,20.79
2023-03-07T09:52:44.142Z,20.70
2023-03-07T09:53:44.168Z,20.29
2023-03-07T09:54:44.120Z,20.70
2023-03-07T09:55:44.111Z,19.89
2023-03-07T09:56:44.098Z,20.79
2023-03-07T09:57:44.085Z,20.60
2023-03-07T09:58:44.091Z,20.20
2023-03-07T09:59:44.073Z,20.10
2023-03-07T10:00:44.063Z,21.00
2023-03-07T10:01:44.052Z,20.79
2023-03-07T10:02:44.039Z,20.10
2023-03-07T10:03:44.082Z,19.70
2023-03-07T10:04:44.037Z,20.39
2023-03-07T10:05:44.031Z,18.79
2023-03-07T10:06:43.997Z,20.29
2023-03-07T10:07:43.991Z,20.89
2023-03-07T10:08:43.980Z,20.70
2023-03-07T10:09:44.018Z,19.79
2023-03-07T10:10:43.956Z,19.10
2023-03-07T10:11:44.031Z,19.60
2023-03-07T10:12:43.938Z,19.29
2023-03-07T10:13:43.942Z,18.39
2023-03-07T10:14:43.931Z,19.70
2023-03-07T10:15:43.946Z,19.29
2023-03-07T10:16:43.913Z,18.39
2023-03-07T10:17:43.887Z,17.89
2023-03-07T10:18:43.880Z,18.60
2023-03-07T10:19:43.866Z,17.89
2023-03-07T10:20:43.857Z,17.50
2023-03-07T10:21:43.857Z,17.10
2023-03-07T10:22:43.836Z,16.50
2023-03-07T10:23:43.842Z,16.60
2023-03-07T10:24:43.817Z,17.10
2023-03-07T10:25:43.842Z,17.10
2023-03-07T10:26:43.794Z,17.20
2023-03-07T10:27:43.785Z,17.70
2023-03-07T10:28:43.781Z,17.89
2023-03-07T10:29:43.797Z,17.70
2023-03-07T10:30:43.750Z,18.29
2023-03-07T10:31:43.772Z,18.10
2023-03-07T10:32:43.803Z,17.79
2023-03-07T10:33:43.719Z,18.20
2023-03-07T10:34:43.711Z,17.60
2023-03-07T10:35:43.752Z,18.00
2023-03-07T10:36:43.685Z,18.10
2023-03-07T10:37:43.687Z,17.50
2023-03-07T10:38:43.669Z,17.60
2023-03-07T10:39:43.682Z,17.60
2023-03-07T10:40:43.652Z,18.60
2023-03-07T10:41:43.708Z,18.00
2023-03-07T10:42:43.629Z,17.50
2023-03-07T10:43:43.631Z,18.20
2023-03-07T10:44:43.604Z,17.79
2023-03-07T10:45:43.598Z,17.10
2023-03-07T10:46:53.734Z,17.00
2023-03-07T10:47:44.597Z,16.70
2023-03-07T10:48:43.562Z,16.89
2023-03-07T10:49:43.561Z,17.10
2023-03-07T10:50:43.549Z,17.20
2023-03-07T10:51:43.539Z,17.50
2023-03-07T10:52:43.521Z,17.00
2023-03-07T10:53:43.510Z,16.60
2023-03-07T10:54:43.499Z,16.79
2023-03-07T10:55:43.502Z,16.79
2023-03-07T10:56:43.527Z,16.79
2023-03-07T10:57:43.501Z,16.50
2023-03-07T10:58:43.463Z,16.20
2023-03-07T10:59:43.497Z,17.10
2023-03-07T11:00:43.442Z,16.89
2023-03-07T11:01:43.462Z,18.50
2023-03-07T11:02:43.423Z,19.39
2023-03-07T11:03:52.745Z,19.39
2023-03-07T11:04:44.474Z,20.10
2023-03-07T11:05:43.386Z,19.00
2023-03-07T11:06:43.373Z,19.10
2023-03-07T11:07:43.364Z,19.29
2023-03-07T11:08:43.359Z,19.79
2023-03-07T11:09:43.343Z,20.10
2023-03-07T11:10:43.370Z,18.50
2023-03-07T11:11:43.324Z,18.29
2023-03-07T11:12:43.316Z,19.00
2023-03-07T11:13:43.343Z,19.20
2023-03-07T11:14:43.291Z,18.29
2023-03-07T11:15:43.335Z,17.89
2023-03-07T11:16:43.436Z,17.70
2023-03-07T11:17:43.281Z,18.10
2023-03-07T11:18:43.258Z,17.89
2023-03-07T11:19:43.248Z,17.89
2023-03-07T11:20:43.246Z,18.10
2023-03-07T11:21:43.222Z,19.20
2023-03-07T11:22:43.212Z,18.10
2023-03-07T11:23:43.242Z,18.29
2023-03-07T11:24:43.196Z,18.00
2023-03-07T11:25:43.185Z,18.00
2023-03-07T11:26:43.181Z,18.10
2023-03-07T11:27:43.158Z,18.79
2023-03-07T11:28:43.160Z,17.79
2023-03-07T11:29:43.167Z,17.79
2023-03-07T11:30:43.156Z,17.60
2023-03-07T11:31:43.122Z,17.79
2023-03-07T11:32:43.169Z,17.89
2023-03-07T11:33:56.776Z,18.20
2023-03-07T11:34:44.110Z,18.70
2023-03-07T11:35:43.104Z,18.10
2023-03-07T11:36:43.075Z,19.10
2023-03-07T11:37:43.059Z,19.00
2023-03-07T11:38:43.052Z,19.89
2023-03-07T11:39:43.039Z,19.10
2023-03-07T11:40:43.187Z,18.79
2023-03-07T11:41:43.021Z,18.00
2023-03-07T11:42:43.012Z,17.79
2023-03-07T11:43:43.032Z,17.29
2023-03-07T11:44:42.993Z,18.10
2023-03-07T11:45:43.012Z,18.10
2023-03-07T11:46:43.035Z,18.20
2023-03-07T11:47:42.959Z,18.39
2023-03-07T11:48:42.949Z,18.29
2023-03-07T11:49:42.951Z,18.39
2023-03-07T11:50:42.934Z,17.39
2023-03-07T11:51:42.922Z,18.10
2023-03-07T11:52:42.905Z,17.29
2023-03-07T11:53:42.901Z,17.79
2023-03-07T11:54:42.886Z,16.70
2023-03-07T11:55:42.881Z,17.20
2023-03-07T11:56:42.868Z,16.20
2023-03-07T11:57:42.864Z,16.29
2023-03-07T11:58:42.844Z,16.50
2023-03-07T11:59:42.840Z,17.70
2023-03-07T12:00:42.840Z,17.70
2023-03-07T12:01:42.843Z,18.79
2023-03-07T12:02:42.856Z,18.39
2023-03-07T12:03:42.807Z,19.70
2023-03-07T12:04:42.797Z,19.00
2023-03-07T12:05:42.829Z,18.79
2023-03-07T12:06:42.783Z,18.89
2023-03-07T12:07:42.763Z,18.39
2023-03-07T12:08:42.754Z,17.79
2023-03-07T12:09:42.792Z,17.89
2023-03-07T12:10:42.737Z,18.39
2023-03-07T12:11:42.718Z,18.29
2023-03-07T12:12:42.710Z,16.60
2023-03-07T12:13:42.701Z,17.00
2023-03-07T12:14:42.690Z,17.20
2023-03-07T12:15:42.682Z,17.79
2023-03-07T12:16:42.842Z,18.70
2023-03-07T12:17:42.689Z,17.50
2023-03-07T12:18:42.654Z,18.10
2023-03-07T12:19:42.643Z,18.60
2023-03-07T12:20:42.642Z,17.89
2023-03-07T12:21:42.619Z,18.39
2023-03-07T12:22:42.612Z,18.20
2023-03-07T12:23:42.607Z,17.79
2023-03-07T12:24:42.586Z,18.50
2023-03-07T12:25:42.586Z,18.20
2023-03-07T12:26:42.566Z,17.70
2023-03-07T12:27:42.555Z,17.00
2023-03-07T12:28:42.548Z,16.50
2023-03-07T12:29:42.536Z,16.89
2023-03-07T12:30:42.524Z,16.60
2023-03-07T12:31:42.839Z,16.39
2023-03-07T12:32:42.786Z,16.70
2023-03-07T12:33:42.525Z,17.29
2023-03-07T12:34:42.484Z,17.39
2023-03-07T12:35:42.563Z,17.10
2023-03-07T12:36:42.512Z,16.39
2023-03-07T12:37:42.453Z,17.89
2023-03-07T12:38:42.446Z,17.50
2023-03-07T12:39:42.447Z,16.89
2023-03-07T12:40:42.426Z,17.60
2023-03-07T12:41:42.415Z,17.20
2023-03-07T12:42:42.410Z,18.39
2023-03-07T12:43:42.396Z,17.00
2023-03-07T12:44:42.411Z,17.10
2023-03-07T12:45:42.560Z,16.89
2023-03-07T12:46:42.363Z,17.00
2023-03-07T12:47:42.355Z,16.89
2023-03-07T12:48:42.350Z,16.50
2023-03-07T12:49:49.800Z,16.79
2023-03-07T12:50:43.347Z,16.29
2023-03-07T12:51:42.317Z,16.79
2023-03-07T12:52:42.299Z,16.70
2023-03-07T12:53:42.294Z,16.20
2023-03-07T12:54:42.282Z,16.50
2023-03-07T12:55:42.269Z,16.50
2023-03-07T12:56:42.269Z,16.50
2023-03-07T12:57:42.252Z,16.29
2023-03-07T12:58:42.239Z,15.50
2023-03-07T12:59:42.231Z,16.29
2023-03-07T13:00:42.270Z,15.10
2023-03-07T13:01:42.211Z,15.50
2023-03-07T13:02:42.204Z,15.60
2023-03-07T13:03:42.188Z,16.00
2023-03-07T13:04:42.185Z,16.20
2023-03-07T13:05:42.201Z,14.89
2023-03-07T13:06:42.155Z,15.30
2023-03-07T13:07:42.150Z,15.89
2023-03-07T13:08:42.140Z,15.60
2023-03-07T13:09:42.121Z,15.19
2023-03-07T13:10:42.113Z,15.60
2023-03-07T13:11:42.171Z,15.00
2023-03-07T13:12:42.088Z,15.10
2023-03-07T13:13:42.082Z,14.89
2023-03-07T13:14:42.079Z,15.30
2023-03-07T13:15:42.063Z,15.80
2023-03-07T13:16:42.116Z,15.60
2023-03-07T13:17:42.046Z,15.19
2023-03-07T13:18:42.029Z,15.80
2023-03-07T13:19:42.020Z,15.80
2023-03-07T13:20:42.009Z,15.10
2023-03-07T13:21:42.024Z,15.00
2023-03-07T13:22:41.988Z,14.50
2023-03-07T13:23:41.980Z,15.50
2023-03-07T13:24:41.970Z,15.89
2023-03-07T13:25:41.954Z,15.00
2023-03-07T13:26:41.942Z,15.10
2023-03-07T13:27:41.945Z,16.00
2023-03-07T13:28:41.924Z,15.00
2023-03-07T13:29:41.917Z,14.30
2023-03-07T13:30:41.960Z,15.19
2023-03-07T13:31:41.891Z,15.00
2023-03-07T13:32:41.928Z,15.10
2023-03-07T13:33:41.872Z,16.00
2023-03-07T13:34:41.862Z,15.19
2023-03-07T13:35:41.879Z,15.39
2023-03-07T13:36:41.840Z,15.50
2023-03-07T13:37:41.863Z,15.19
2023-03-07T13:38:41.830Z,15.60
2023-03-07T13:39:41.811Z,15.60
2023-03-07T13:40:41.803Z,16.39
2023-03-07T13:41:41.813Z,15.50
2023-03-07T13:42:41.781Z,15.10
2023-03-07T13:43:41.774Z,16.20
2023-03-07T13:44:41.764Z,16.79